createdAt,value
2019-05-26T00:01:36.162Z,5.00
2019-05-26T00:04:07.085Z,5.20
2019-05-26T00:06:38.007Z,4.47
2019-05-26T00:09:08.511Z,5.10
2019-05-26T00:11:39.328Z,4.80
2019-05-26T00:14:09.754Z,4.83
2019-05-26T00:16:40.708Z,4.77
2019-05-26T00:19:11.543Z,5.00
2019-05-26T00:21:42.485Z,4.97
2019-05-26T00:24:13.307Z,4.77
2019-05-26T00:26:43.838Z,4.60
2019-05-26T00:29:14.569Z,4.70
2019-05-26T00:31:45.053Z,4.87
2019-05-26T00:34:15.959Z,5.30
2019-05-26T00:36:46.859Z,5.40
2019-05-26T00:39:17.612Z,5.07
2019-05-26T00:41:48.564Z,5.63
2019-05-26T00:44:19.389Z,5.20
2019-05-26T00:46:52.591Z,5.00
2019-05-26T00:49:23.430Z,5.63
2019-05-26T00:51:54.350Z,5.00
2019-05-26T00:54:26.624Z,5.50
2019-05-26T00:56:57.498Z,5.27
2019-05-26T00:59:28.330Z,5.20
2019-05-26T01:01:59.131Z,5.33
2019-05-26T01:04:29.867Z,5.57
2019-05-26T01:07:00.817Z,5.40
2019-05-26T01:09:31.337Z,5.13
2019-05-26T01:12:02.186Z,5.43
2019-05-26T01:14:33.010Z,5.40
2019-05-26T01:17:03.864Z,5.57
2019-05-26T01:19:34.689Z,5.90
2019-05-26T01:22:05.526Z,5.80
2019-05-26T01:24:36.020Z,5.80
2019-05-26T01:27:06.890Z,5.63
2019-05-26T01:29:37.730Z,5.23
2019-05-26T01:32:10.028Z,6.17
2019-05-26T01:34:40.921Z,5.33
2019-05-26T01:37:11.626Z,5.80
2019-05-26T01:39:42.112Z,5.80
2019-05-26T01:42:12.645Z,5.30
2019-05-26T01:44:43.464Z,5.40
2019-05-26T01:47:13.938Z,5.17
2019-05-26T01:49:44.710Z,5.53
2019-05-26T01:52:15.577Z,5.80
2019-05-26T01:54:46.414Z,5.30
2019-05-26T01:57:17.237Z,5.67
2019-05-26T01:59:48.100Z,5.37
2019-05-26T02:02:18.960Z,5.37
2019-05-26T02:04:49.758Z,5.37
2019-05-26T02:07:20.672Z,5.47
2019-05-26T02:09:51.532Z,5.37
2019-05-26T02:12:22.450Z,5.30
2019-05-26T02:14:53.324Z,5.63
2019-05-26T02:17:23.880Z,5.70
2019-05-26T02:19:54.671Z,6.40
2019-05-26T02:22:25.140Z,5.67
2019-05-26T02:24:55.958Z,5.90
2019-05-26T02:27:26.776Z,5.80
2019-05-26T02:29:57.686Z,6.03
2019-05-26T02:32:28.550Z,5.73
2019-05-26T02:34:59.407Z,5.63
2019-05-26T02:37:30.536Z,5.73
2019-05-26T02:40:01.039Z,6.47
2019-05-26T02:42:31.902Z,6.43
2019-05-26T02:45:02.734Z,6.77
2019-05-26T02:47:33.687Z,6.33
2019-05-26T02:50:05.679Z,6.67
2019-05-26T02:52:36.657Z,6.40
2019-05-26T02:55:08.963Z,6.20
2019-05-26T02:57:39.408Z,6.47
2019-05-26T03:00:11.853Z,7.33
2019-05-26T03:02:43.007Z,8.33
2019-05-26T03:05:15.360Z,8.00
2019-05-26T03:07:46.207Z,6.93
2019-05-26T03:10:17.374Z,6.90
2019-05-26T03:12:49.418Z,6.57
2019-05-26T03:15:20.349Z,6.13
2019-05-26T03:17:52.821Z,7.27
2019-05-26T03:20:23.666Z,7.17
2019-05-26T03:22:56.099Z,6.63
2019-05-26T03:25:26.872Z,6.80
2019-05-26T03:27:57.717Z,7.60
2019-05-26T03:30:28.185Z,6.80
2019-05-26T03:32:59.135Z,6.53
2019-05-26T03:35:29.933Z,6.90
2019-05-26T03:38:00.840Z,6.90
2019-05-26T03:40:31.268Z,7.10
2019-05-26T03:43:02.232Z,7.37
2019-05-26T03:45:41.856Z,7.10
2019-05-26T03:48:12.798Z,7.10
2019-05-26T03:50:43.707Z,7.10
2019-05-26T03:53:14.567Z,7.30
2019-05-26T03:55:45.393Z,7.23
2019-05-26T03:58:16.502Z,7.17
2019-05-26T04:00:47.279Z,7.23
2019-05-26T04:03:18.336Z,7.23
2019-05-26T04:05:49.328Z,7.83
2019-05-26T04:08:20.248Z,7.60
2019-05-26T04:10:51.132Z,7.60
2019-05-26T04:13:22.179Z,7.23
2019-05-26T04:15:52.925Z,7.70
2019-05-26T04:18:23.771Z,8.10
2019-05-26T04:20:54.501Z,7.93
2019-05-26T04:23:25.338Z,8.10
2019-05-26T04:25:56.169Z,8.13
2019-05-26T04:28:27.115Z,8.57
2019-05-26T04:30:57.984Z,8.13
2019-05-26T04:33:28.877Z,8.30
2019-05-26T04:35:59.722Z,8.30
2019-05-26T04:38:30.672Z,8.07
2019-05-26T04:41:01.490Z,8.03
2019-05-26T04:43:32.084Z,8.03
2019-05-26T04:46:02.963Z,8.23
2019-05-26T04:48:34.052Z,8.00
2019-05-26T04:51:04.938Z,8.10
2019-05-26T04:53:36.028Z,8.17
2019-05-26T04:56:06.919Z,8.20
2019-05-26T04:58:37.875Z,8.47
2019-05-26T05:01:08.695Z,8.60
2019-05-26T05:03:39.550Z,8.40
2019-05-26T05:06:10.035Z,9.10
2019-05-26T05:08:41.017Z,8.50
2019-05-26T05:11:11.820Z,8.67
2019-05-26T05:13:42.761Z,8.90
2019-05-26T05:16:13.627Z,8.23
2019-05-26T05:18:44.463Z,8.37
2019-05-26T05:21:15.304Z,8.33
2019-05-26T05:23:46.131Z,8.37
2019-05-26T05:26:16.955Z,8.93
2019-05-26T05:28:47.717Z,8.37
2019-05-26T05:31:18.567Z,8.57
2019-05-26T05:33:49.482Z,8.27
2019-05-26T05:36:20.363Z,8.47
2019-05-26T05:38:51.296Z,8.50
2019-05-26T05:41:22.163Z,8.57
2019-05-26T05:43:52.616Z,8.20
2019-05-26T05:46:23.038Z,8.90
2019-05-26T05:48:53.891Z,8.47
2019-05-26T05:51:24.717Z,8.43
2019-05-26T05:53:55.546Z,8.60
2019-05-26T05:56:26.041Z,8.67
2019-05-26T05:58:56.897Z,8.60
2019-05-26T06:01:27.802Z,7.57
2019-05-26T06:03:58.329Z,7.23
2019-05-26T06:06:29.115Z,8.03
2019-05-26T06:08:59.993Z,7.83
2019-05-26T06:11:30.795Z,7.30
2019-05-26T06:14:01.627Z,7.03
2019-05-26T06:16:32.704Z,7.17
2019-05-26T06:19:03.608Z,6.87
2019-05-26T06:21:34.478Z,6.87
2019-05-26T06:24:05.653Z,6.97
2019-05-26T06:26:36.119Z,7.43
2019-05-26T06:29:06.945Z,7.40
2019-05-26T06:31:37.486Z,7.07
2019-05-26T06:34:08.381Z,7.27
2019-05-26T06:36:39.259Z,7.03
2019-05-26T06:39:09.837Z,6.73
2019-05-26T06:41:40.599Z,7.33
2019-05-26T06:44:11.495Z,7.27
2019-05-26T06:46:42.502Z,6.67
2019-05-26T06:49:13.329Z,6.30
2019-05-26T06:51:43.902Z,5.90
2019-05-26T06:54:14.373Z,6.13
2019-05-26T06:56:45.137Z,5.60
2019-05-26T06:59:16.199Z,5.00
2019-05-26T07:01:47.013Z,5.60
2019-05-26T07:04:17.850Z,5.20
2019-05-26T07:06:48.588Z,5.40
2019-05-26T07:09:19.399Z,5.20
2019-05-26T07:11:58.828Z,5.10
2019-05-26T07:14:22.722Z,5.30
2019-05-26T07:16:53.463Z,5.03
2019-05-26T07:19:24.351Z,4.50
2019-05-26T07:21:55.319Z,4.90
2019-05-26T07:24:29.319Z,4.70
2019-05-26T07:26:58.647Z,4.40
2019-05-26T07:29:29.482Z,4.43
2019-05-26T07:32:00.360Z,4.20
2019-05-26T07:34:31.285Z,4.35
2019-05-26T07:37:02.151Z,4.47
2019-05-26T07:39:33.177Z,4.42
2019-05-26T07:42:10.227Z,4.08
2019-05-26T07:44:36.329Z,3.60
2019-05-26T07:47:07.104Z,3.90
2019-05-26T07:49:38.077Z,3.52
2019-05-26T07:52:08.531Z,3.75
2019-05-26T07:54:39.038Z,3.27
2019-05-26T07:57:09.976Z,3.20
2019-05-26T07:59:40.877Z,3.10
2019-05-26T08:02:11.409Z,3.25
2019-05-26T08:04:42.356Z,3.20
2019-05-26T08:07:12.805Z,2.90
2019-05-26T08:09:43.723Z,3.27
2019-05-26T08:12:25.929Z,3.20
2019-05-26T08:14:47.232Z,3.33
2019-05-26T08:17:18.134Z,3.63
2019-05-26T08:19:48.910Z,3.47
2019-05-26T08:22:19.496Z,3.33
2019-05-26T08:24:50.384Z,3.62
2019-05-26T08:27:21.219Z,3.80
2019-05-26T08:29:51.689Z,3.17
2019-05-26T08:32:22.605Z,3.85
2019-05-26T08:34:53.510Z,3.50
2019-05-26T08:37:24.464Z,3.25
2019-05-26T08:39:57.023Z,3.50
2019-05-26T08:42:42.069Z,3.92
2019-05-26T08:45:00.460Z,3.27
2019-05-26T08:47:31.110Z,3.25
2019-05-26T08:50:02.110Z,3.45
2019-05-26T08:52:32.890Z,2.95
2019-05-26T08:55:05.123Z,3.25
2019-05-26T08:57:35.986Z,3.80
2019-05-26T09:00:08.644Z,3.22
2019-05-26T09:02:39.159Z,2.87
2019-05-26T09:05:10.634Z,3.58
2019-05-26T09:07:41.446Z,3.30
2019-05-26T09:10:13.287Z,3.35
2019-05-26T09:12:57.869Z,3.12
2019-05-26T09:15:18.144Z,3.02
2019-05-26T09:17:50.546Z,3.10
2019-05-26T09:20:24.147Z,3.20
2019-05-26T09:22:56.732Z,3.40
2019-05-26T09:25:27.600Z,2.90
2019-05-26T09:27:58.650Z,3.33
2019-05-26T09:30:29.564Z,3.03
2019-05-26T09:33:00.062Z,3.65
2019-05-26T09:35:31.906Z,3.27
2019-05-26T09:38:05.823Z,3.42
2019-05-26T09:40:38.532Z,2.90
2019-05-26T09:43:16.100Z,3.50
2019-05-26T09:45:41.846Z,3.33
2019-05-26T09:48:12.781Z,3.50
2019-05-26T09:50:43.762Z,3.42
2019-05-26T09:53:14.640Z,3.05
2019-05-26T09:55:45.480Z,3.17
2019-05-26T09:58:16.439Z,3.00
2019-05-26T10:00:47.386Z,3.58
2019-05-26T10:03:18.190Z,3.70
2019-05-26T10:05:49.034Z,4.90
2019-05-26T10:08:19.824Z,4.40
2019-05-26T10:10:50.672Z,4.15
2019-05-26T10:13:31.297Z,4.47
2019-05-26T10:15:53.888Z,4.40
2019-05-26T10:18:24.730Z,5.30
2019-05-26T10:20:55.800Z,5.55
2019-05-26T10:23:26.254Z,5.30
2019-05-26T10:25:57.155Z,5.50
2019-05-26T10:28:27.682Z,5.20
2019-05-26T10:30:58.492Z,5.80
2019-05-26T10:33:29.434Z,6.10
2019-05-26T10:36:00.293Z,5.65
2019-05-26T10:38:32.861Z,6.37
2019-05-26T10:41:03.829Z,5.50
2019-05-26T10:43:46.250Z,5.60
2019-05-26T10:46:06.932Z,6.10
2019-05-26T10:48:37.925Z,5.45
2019-05-26T10:51:08.911Z,5.40
2019-05-26T10:53:39.785Z,4.83
2019-05-26T10:56:10.334Z,4.95
2019-05-26T10:58:41.094Z,5.80
2019-05-26T11:01:11.949Z,5.42
2019-05-26T11:03:42.784Z,5.40
2019-05-26T11:06:13.608Z,5.10
2019-05-26T11:08:44.529Z,5.05
2019-05-26T11:11:15.373Z,5.42
2019-05-26T11:14:00.042Z,5.53
2019-05-26T11:16:18.820Z,5.10
2019-05-26T11:18:49.841Z,5.03
2019-05-26T11:21:20.678Z,5.22
2019-05-26T11:23:51.513Z,4.72
2019-05-26T11:26:22.372Z,4.50
2019-05-26T11:28:53.178Z,5.20
2019-05-26T11:31:24.025Z,4.90
2019-05-26T11:33:54.861Z,5.00
2019-05-26T11:36:25.341Z,5.83
2019-05-26T11:38:56.208Z,4.25
2019-05-26T11:41:27.103Z,4.85
2019-05-26T11:43:57.879Z,4.15
2019-05-26T11:46:28.755Z,4.40
2019-05-26T11:48:59.577Z,4.28
2019-05-26T11:51:32.252Z,4.62
2019-05-26T11:54:03.101Z,4.53
2019-05-26T11:56:33.989Z,4.20
2019-05-26T11:59:04.956Z,4.92
2019-05-26T12:01:35.821Z,4.95
2019-05-26T12:04:06.731Z,4.40
2019-05-26T12:06:37.577Z,4.30
2019-05-26T12:09:09.859Z,3.80
2019-05-26T12:11:40.753Z,3.98
2019-05-26T12:14:11.614Z,3.75
2019-05-26T12:16:42.571Z,4.22
2019-05-26T12:19:13.285Z,4.33
2019-05-26T12:21:44.123Z,4.55
2019-05-26T12:24:14.627Z,4.70
2019-05-26T12:26:45.421Z,4.53
2019-05-26T12:29:15.899Z,4.28
2019-05-26T12:31:46.748Z,4.87
2019-05-26T12:34:17.506Z,4.80
2019-05-26T12:36:48.065Z,4.35
2019-05-26T12:39:18.987Z,4.00
2019-05-26T12:41:49.883Z,4.95
2019-05-26T12:44:20.800Z,4.58
2019-05-26T12:46:51.290Z,4.70
2019-05-26T12:49:21.782Z,4.28
2019-05-26T12:51:52.615Z,4.00
2019-05-26T12:54:23.137Z,4.10
2019-05-26T12:56:54.127Z,4.70
2019-05-26T12:59:24.945Z,4.40
2019-05-26T13:01:55.781Z,3.90
2019-05-26T13:04:26.605Z,4.08
2019-05-26T13:06:57.573Z,4.20
2019-05-26T13:09:28.135Z,3.70
2019-05-26T13:11:59.183Z,3.27
2019-05-26T13:14:30.204Z,3.52
2019-05-26T13:17:01.788Z,3.80
2019-05-26T13:19:32.785Z,3.20
2019-05-26T13:22:04.308Z,3.50
2019-05-26T13:24:35.105Z,3.77
2019-05-26T13:27:06.323Z,3.65
2019-05-26T13:29:36.905Z,3.80
2019-05-26T13:32:09.213Z,3.72
2019-05-26T13:34:40.159Z,3.98
2019-05-26T13:37:10.985Z,3.52
2019-05-26T13:39:41.831Z,4.08
2019-05-26T13:42:12.661Z,3.72
2019-05-26T13:44:43.496Z,3.50
2019-05-26T13:47:25.856Z,3.60
2019-05-26T13:49:47.009Z,3.27
2019-05-26T13:52:19.284Z,3.37
2019-05-26T13:54:50.155Z,3.42
2019-05-26T13:57:23.841Z,3.30
2019-05-26T13:59:54.767Z,3.33
2019-05-26T14:02:25.634Z,3.40
2019-05-26T14:04:56.387Z,3.20
2019-05-26T14:07:27.265Z,3.33
2019-05-26T14:09:58.115Z,3.40
2019-05-26T14:12:28.894Z,3.42
2019-05-26T14:14:59.673Z,2.98
2019-05-26T14:17:32.474Z,3.00
2019-05-26T14:20:06.519Z,3.00
2019-05-26T14:22:37.008Z,3.10
2019-05-26T14:25:08.688Z,3.45
2019-05-26T14:27:39.621Z,3.30
2019-05-26T14:30:11.076Z,3.25
2019-05-26T14:32:42.842Z,2.90
2019-05-26T14:35:13.753Z,2.83
2019-05-26T14:37:44.576Z,2.92
2019-05-26T14:40:15.318Z,2.80
2019-05-26T14:42:46.178Z,2.98
2019-05-26T14:45:17.199Z,2.85
2019-05-26T14:47:48.181Z,2.77
2019-05-26T14:50:20.115Z,2.62
2019-05-26T14:52:50.941Z,3.05
2019-05-26T14:55:21.765Z,3.00
2019-05-26T14:57:52.583Z,3.22
2019-05-26T15:00:25.324Z,3.37
2019-05-26T15:02:56.369Z,3.50
2019-05-26T15:05:27.583Z,3.17
2019-05-26T15:07:58.464Z,3.10
2019-05-26T15:10:29.262Z,3.00
2019-05-26T15:13:00.075Z,3.10
2019-05-26T15:15:30.530Z,2.60
2019-05-26T15:18:01.355Z,2.90
2019-05-26T15:20:32.290Z,3.10
2019-05-26T15:23:02.745Z,3.27
2019-05-26T15:25:33.213Z,3.50
2019-05-26T15:28:04.198Z,3.37
2019-05-26T15:30:34.643Z,3.30
2019-05-26T15:33:05.587Z,3.25
2019-05-26T15:35:36.502Z,3.30
2019-05-26T15:38:07.307Z,3.80
2019-05-26T15:40:38.264Z,3.10
2019-05-26T15:43:09.088Z,3.02
2019-05-26T15:45:39.935Z,3.08
2019-05-26T15:48:10.403Z,3.10
2019-05-26T15:50:41.307Z,2.98
2019-05-26T15:53:12.452Z,2.85
2019-05-26T15:55:43.896Z,3.40
2019-05-26T15:58:14.767Z,3.08
2019-05-26T16:00:46.003Z,3.40
2019-05-26T16:03:16.929Z,3.08
2019-05-26T16:05:47.777Z,3.00
2019-05-26T16:08:18.710Z,3.10
2019-05-26T16:10:49.664Z,2.90
2019-05-26T16:13:20.590Z,3.10
2019-05-26T16:15:51.422Z,2.87
2019-05-26T16:18:21.971Z,3.12
2019-05-26T16:21:02.667Z,2.60
2019-05-26T16:23:25.047Z,3.30
2019-05-26T16:25:55.944Z,2.58
2019-05-26T16:28:27.336Z,2.87
2019-05-26T16:30:58.379Z,3.10
2019-05-26T16:33:29.222Z,3.02
2019-05-26T16:36:00.177Z,2.52
2019-05-26T16:38:31.105Z,2.80
2019-05-26T16:41:01.987Z,2.52
2019-05-26T16:43:32.871Z,2.85
2019-05-26T16:46:03.986Z,3.85
2019-05-26T16:48:36.390Z,4.75
2019-05-26T16:51:07.238Z,5.25
2019-05-26T16:53:38.121Z,4.67
2019-05-26T16:56:09.108Z,4.80
2019-05-26T16:58:39.989Z,4.12
2019-05-26T17:01:10.960Z,3.70
2019-05-26T17:03:41.990Z,4.25
2019-05-26T17:06:12.856Z,4.55
2019-05-26T17:08:46.494Z,4.37
2019-05-26T17:11:17.328Z,4.08
2019-05-26T17:13:48.231Z,4.33
2019-05-26T17:16:20.418Z,3.98
2019-05-26T17:18:51.060Z,3.33
2019-05-26T17:21:21.988Z,4.75
2019-05-26T17:23:53.011Z,4.42
2019-05-26T17:26:25.484Z,3.65
2019-05-26T17:28:56.173Z,4.08
2019-05-26T17:31:27.088Z,3.85
2019-05-26T17:33:57.964Z,4.55
2019-05-26T17:36:28.730Z,4.70
2019-05-26T17:38:59.818Z,3.80
2019-05-26T17:41:30.382Z,4.03
2019-05-26T17:44:04.374Z,5.60
2019-05-26T17:46:35.180Z,5.00
2019-05-26T17:49:06.231Z,4.37
2019-05-26T17:52:04.910Z,3.47
2019-05-26T17:54:26.037Z,4.33
2019-05-26T17:56:58.411Z,3.52
2019-05-26T17:59:29.473Z,3.20
2019-05-26T18:02:00.588Z,3.33
2019-05-26T18:04:31.153Z,2.95
2019-05-26T18:07:02.139Z,2.70
2019-05-26T18:09:43.595Z,3.00
2019-05-26T18:12:05.927Z,2.90
2019-05-26T18:14:36.803Z,2.92
2019-05-26T18:17:07.708Z,2.90
2019-05-26T18:19:38.623Z,2.90
2019-05-26T18:22:09.683Z,3.20
2019-05-26T18:24:53.219Z,2.95
2019-05-26T18:27:14.677Z,3.05
2019-05-26T18:29:45.649Z,3.67
2019-05-26T18:32:17.334Z,3.77
2019-05-26T18:34:48.347Z,3.50
2019-05-26T18:37:19.601Z,3.77
2019-05-26T18:39:50.382Z,3.92
2019-05-26T18:42:22.593Z,3.72
2019-05-26T18:44:53.485Z,3.30
2019-05-26T18:47:24.309Z,3.45
2019-05-26T18:49:55.240Z,3.25
2019-05-26T18:52:26.133Z,3.40
2019-05-26T18:54:57.065Z,4.22
2019-05-26T18:57:28.073Z,3.30
2019-05-26T18:59:59.017Z,4.00
2019-05-26T19:05:33.639Z,4.67
2019-05-26T19:08:00.276Z,5.22
2019-05-26T19:10:31.136Z,4.17
2019-05-26T19:13:01.753Z,6.50
2019-05-26T19:15:32.316Z,4.30
2019-05-26T19:18:18.883Z,4.22
2019-05-26T19:20:35.646Z,4.30
2019-05-26T19:23:06.765Z,4.10
2019-05-26T19:25:37.619Z,5.05
2019-05-26T19:28:08.567Z,4.97
2019-05-26T19:30:39.482Z,4.67
2019-05-26T19:33:10.313Z,5.30
2019-05-26T19:35:41.778Z,4.58
2019-05-26T19:38:13.845Z,4.50
2019-05-26T19:40:46.248Z,3.77
2019-05-26T19:43:25.931Z,4.25
2019-05-26T19:46:03.405Z,4.80
2019-05-26T19:48:36.974Z,4.20
2019-05-26T19:51:09.411Z,4.10
2019-05-26T19:53:40.287Z,4.15
2019-05-26T19:56:12.160Z,3.65
2019-05-26T19:58:44.745Z,3.83
2019-05-26T20:01:15.675Z,4.03
2019-05-26T20:03:48.277Z,4.03
2019-05-26T20:06:19.321Z,4.60
2019-05-26T20:08:52.014Z,4.05
2019-05-26T20:11:22.952Z,3.80
2019-05-26T20:13:58.891Z,4.03
2019-05-26T20:16:30.973Z,4.72
2019-05-26T20:19:02.147Z,4.60
2019-05-26T20:21:32.835Z,4.03
2019-05-26T20:24:05.139Z,5.00
2019-05-26T20:26:36.105Z,4.35
2019-05-26T20:29:07.138Z,3.52
2019-05-26T20:31:38.370Z,4.45
2019-05-26T20:34:08.961Z,3.60
2019-05-26T20:36:40.835Z,3.83
2019-05-26T20:39:11.781Z,4.50
2019-05-26T20:41:42.685Z,4.25
2019-05-26T20:44:18.985Z,3.90
2019-05-26T20:46:49.890Z,4.42
2019-05-26T20:49:20.667Z,4.65
2019-05-26T20:51:51.185Z,4.15
2019-05-26T20:54:22.699Z,4.60
2019-05-26T20:56:53.614Z,4.42
2019-05-26T20:59:24.528Z,4.53
2019-05-26T21:01:55.355Z,4.05
2019-05-26T21:04:26.194Z,5.17
2019-05-26T21:06:57.151Z,4.00
2019-05-26T21:09:28.051Z,3.85
2019-05-26T21:11:58.915Z,4.05
2019-05-26T21:14:29.761Z,4.20
2019-05-26T21:17:00.703Z,3.73
2019-05-26T21:19:31.635Z,3.85
2019-05-26T21:22:02.593Z,3.70
2019-05-26T21:24:33.511Z,3.85
2019-05-26T21:27:04.750Z,3.90
2019-05-26T21:29:35.610Z,4.10
2019-05-26T21:32:06.538Z,4.30
2019-05-26T21:34:37.468Z,3.92
2019-05-26T21:37:08.066Z,4.53
2019-05-26T21:39:39.045Z,4.12
2019-05-26T21:42:15.943Z,4.22
2019-05-26T21:44:45.645Z,4.03
2019-05-26T21:47:16.617Z,4.25
2019-05-26T21:49:48.651Z,4.10
2019-05-26T21:52:21.929Z,3.60
2019-05-26T21:54:54.644Z,3.83
2019-05-26T21:57:25.441Z,3.80
2019-05-26T21:59:56.004Z,3.83
2019-05-26T22:02:26.925Z,4.00
2019-05-26T22:04:57.493Z,3.65
2019-05-26T22:07:28.069Z,4.22
2019-05-26T22:09:58.968Z,3.83
2019-05-26T22:12:29.863Z,3.98
2019-05-26T22:15:00.781Z,4.25
2019-05-26T22:17:31.606Z,4.92
2019-05-26T22:20:12.027Z,4.42
2019-05-26T22:22:42.909Z,4.25
2019-05-26T22:25:13.903Z,4.00
2019-05-26T22:27:44.815Z,4.10
2019-05-26T22:30:18.117Z,3.70
2019-05-26T22:32:49.727Z,4.12
2019-05-26T22:35:20.687Z,4.10
2019-05-26T22:37:53.272Z,4.50
2019-05-26T22:40:24.410Z,4.20
2019-05-26T22:42:55.272Z,4.20
2019-05-26T22:45:26.218Z,4.00
2019-05-26T22:47:57.234Z,4.03
2019-05-26T22:50:28.262Z,4.58
2019-05-26T22:52:59.033Z,4.65
2019-05-26T22:55:30.056Z,4.17
2019-05-26T22:58:00.873Z,4.85
2019-05-26T23:00:31.924Z,5.28
2019-05-26T23:03:02.848Z,4.15
2019-05-26T23:05:33.687Z,4.03
2019-05-26T23:08:04.640Z,4.22
2019-05-26T23:10:35.550Z,4.58
2019-05-26T23:13:06.459Z,4.17
2019-05-26T23:15:36.939Z,4.40
2019-05-26T23:18:07.781Z,4.30
2019-05-26T23:20:38.658Z,3.98
2019-05-26T23:23:09.452Z,4.95
2019-05-26T23:25:41.778Z,4.10
2019-05-26T23:28:12.652Z,4.40
2019-05-26T23:30:43.623Z,4.03
2019-05-26T23:33:14.122Z,4.20
2019-05-26T23:35:45.068Z,4.42
2019-05-26T23:38:15.984Z,4.37
2019-05-26T23:40:47.258Z,4.10
2019-05-26T23:43:18.219Z,4.45
2019-05-26T23:45:49.184Z,4.10
2019-05-26T23:48:19.883Z,4.65
2019-05-26T23:50:51.434Z,4.58
2019-05-26T23:53:22.012Z,4.20
2019-05-26T23:55:52.988Z,4.35
2019-05-26T23:58:23.612Z,4.00
